sensor_id;sensor_type;location;lat;lon;timestamp;P1;durP1;ratioP1;P2;durP2;ratioP2
23280;SDS011;11809;56.390;-3.266;2023-04-15T00:01:51;2.03;;;1.08;;
23280;SDS011;11809;56.390;-3.266;2023-04-15T00:04:19;1.48;;;1.00;;
23280;SDS011;11809;56.390;-3.266;2023-04-15T00:06:50;1.27;;;0.85;;
23280;SDS011;11809;56.390;-3.266;2023-04-15T00:09:19;2.88;;;0.90;;
23280;SDS011;11809;56.390;-3.266;2023-04-15T00:11:46;2.08;;;1.15;;
23280;SDS011;11809;56.390;-3.266;2023-04-15T00:14:13;2.33;;;1.00;;
23280;SDS011;11809;56.390;-3.266;2023-04-15T00:16:41;1.77;;;1.10;;
23280;SDS011;11809;56.390;-3.266;2023-04-15T00:19:08;3.15;;;0.90;;
23280;SDS011;11809;56.390;-3.266;2023-04-15T00:21:35;2.55;;;1.02;;
23280;SDS011;11809;56.390;-3.266;2023-04-15T00:24:02;1.63;;;1.00;;
23280;SDS011;11809;56.390;-3.266;2023-04-15T00:26:29;2.92;;;1.00;;
23280;SDS011;11809;56.390;-3.266;2023-04-15T00:28:56;2.03;;;1.20;;
23280;SDS011;11809;56.390;-3.266;2023-04-15T00:31:24;3.80;;;1.10;;
23280;SDS011;11809;56.390;-3.266;2023-04-15T00:33:51;2.42;;;0.90;;
23280;SDS011;11809;56.390;-3.266;2023-04-15T00:36:18;2.72;;;1.00;;
23280;SDS011;11809;56.390;-3.266;2023-04-15T00:38:45;1.95;;;0.73;;
23280;SDS011;11809;56.390;-3.266;2023-04-15T00:41:12;1.92;;;0.73;;
23280;SDS011;11809;56.390;-3.266;2023-04-15T00:43:40;1.48;;;1.08;;
23280;SDS011;11809;56.390;-3.266;2023-04-15T00:46:07;1.45;;;1.00;;
23280;SDS011;11809;56.390;-3.266;2023-04-15T00:48:36;1.25;;;1.00;;
23280;SDS011;11809;56.390;-3.266;2023-04-15T00:51:04;1.67;;;0.90;;
23280;SDS011;11809;56.390;-3.266;2023-04-15T00:53:32;2.15;;;1.17;;
23280;SDS011;11809;56.390;-3.266;2023-04-15T00:55:59;1.58;;;0.80;;
23280;SDS011;11809;56.390;-3.266;2023-04-15T00:58:26;1.67;;;1.00;;
23280;SDS011;11809;56.390;-3.266;2023-04-15T01:00:55;3.72;;;0.90;;
23280;SDS011;11809;56.390;-3.266;2023-04-15T01:03:22;1.63;;;0.80;;
23280;SDS011;11809;56.390;-3.266;2023-04-15T01:05:50;1.05;;;0.80;;
23280;SDS011;11809;56.390;-3.266;2023-04-15T01:08:29;3.67;;;1.05;;
23280;SDS011;11809;56.390;-3.266;2023-04-15T01:10:57;1.45;;;0.77;;
23280;SDS011;11809;56.390;-3.266;2023-04-15T01:13:27;1.23;;;0.85;;
23280;SDS011;11809;56.390;-3.266;2023-04-15T01:15:55;1.23;;;0.73;;
23280;SDS011;11809;56.390;-3.266;2023-04-15T01:18:22;2.05;;;0.93;;
23280;SDS011;11809;56.390;-3.266;2023-04-15T01:20:50;1.42;;;1.00;;
23280;SDS011;11809;56.390;-3.266;2023-04-15T01:23:17;1.88;;;1.00;;
23280;SDS011;11809;56.390;-3.266;2023-04-15T01:25:44;1.45;;;1.00;;
23280;SDS011;11809;56.390;-3.266;2023-04-15T01:28:12;1.70;;;0.80;;
23280;SDS011;11809;56.390;-3.266;2023-04-15T01:30:39;1.85;;;0.88;;
23280;SDS011;11809;56.390;-3.266;2023-04-15T01:33:06;1.45;;;1.08;;
23280;SDS011;11809;56.390;-3.266;2023-04-15T01:35:33;0.95;;;0.82;;
23280;SDS011;11809;56.390;-3.266;2023-04-15T01:38:07;1.58;;;0.80;;
23280;SDS011;11809;56.390;-3.266;2023-04-15T01:40:35;2.50;;;1.08;;
23280;SDS011;11809;56.390;-3.266;2023-04-15T01:43:02;1.10;;;0.98;;
23280;SDS011;11809;56.390;-3.266;2023-04-15T01:45:29;1.05;;;0.95;;
23280;SDS011;11809;56.390;-3.266;2023-04-15T01:47:56;1.15;;;0.80;;
23280;SDS011;11809;56.390;-3.266;2023-04-15T01:50:23;1.83;;;0.80;;
23280;SDS011;11809;56.390;-3.266;2023-04-15T01:55:21;1.10;;;0.73;;
23280;SDS011;11809;56.390;-3.266;2023-04-15T01:57:48;2.10;;;0.95;;
23280;SDS011;11809;56.390;-3.266;2023-04-15T02:00:15;1.65;;;1.00;;
23280;SDS011;11809;56.390;-3.266;2023-04-15T02:02:43;1.40;;;0.80;;
23280;SDS011;11809;56.390;-3.266;2023-04-15T02:05:10;1.10;;;0.70;;
23280;SDS011;11809;56.390;-3.266;2023-04-15T02:07:37;1.13;;;0.77;;
23280;SDS011;11809;56.390;-3.266;2023-04-15T02:10:04;0.77;;;0.70;;
23280;SDS011;11809;56.390;-3.266;2023-04-15T02:12:31;1.70;;;0.80;;
23280;SDS011;11809;56.390;-3.266;2023-04-15T02:14:58;1.65;;;0.80;;
23280;SDS011;11809;56.390;-3.266;2023-04-15T02:17:25;1.08;;;0.90;;
23280;SDS011;11809;56.390;-3.266;2023-04-15T02:19:54;1.13;;;0.80;;
23280;SDS011;11809;56.390;-3.266;2023-04-15T02:22:22;1.60;;;0.95;;
23280;SDS011;11809;56.390;-3.266;2023-04-15T02:24:49;1.73;;;0.90;;
23280;SDS011;11809;56.390;-3.266;2023-04-15T02:27:16;1.58;;;0.80;;
23280;SDS011;11809;56.390;-3.266;2023-04-15T02:29:44;1.90;;;0.82;;
23280;SDS011;11809;56.390;-3.266;2023-04-15T02:32:11;1.00;;;0.90;;
23280;SDS011;11809;56.390;-3.266;2023-04-15T02:34:39;0.80;;;0.80;;
23280;SDS011;11809;56.390;-3.266;2023-04-15T02:37:08;1.00;;;1.00;;
23280;SDS011;11809;56.390;-3.266;2023-04-15T02:39:36;0.70;;;0.68;;
23280;SDS011;11809;56.390;-3.266;2023-04-15T02:42:03;1.15;;;0.60;;
23280;SDS011;11809;56.390;-3.266;2023-04-15T02:44:31;2.03;;;0.80;;
23280;SDS011;11809;56.390;-3.266;2023-04-15T02:46:59;0.70;;;0.70;;
23280;SDS011;11809;56.390;-3.266;2023-04-15T02:49:26;0.82;;;0.77;;
23280;SDS011;11809;56.390;-3.266;2023-04-15T02:51:56;1.00;;;0.90;;
23280;SDS011;11809;56.390;-3.266;2023-04-15T02:54:23;1.08;;;0.80;;
23280;SDS011;11809;56.390;-3.266;2023-04-15T02:56:51;1.27;;;0.77;;
23280;SDS011;11809;56.390;-3.266;2023-04-15T02:59:20;0.98;;;0.70;;
23280;SDS011;11809;56.390;-3.266;2023-04-15T03:01:48;2.13;;;0.85;;
23280;SDS011;11809;56.390;-3.266;2023-04-15T03:04:15;1.00;;;0.85;;
23280;SDS011;11809;56.390;-3.266;2023-04-15T03:06:42;0.80;;;0.70;;
23280;SDS011;11809;56.390;-3.266;2023-04-15T03:09:09;0.70;;;0.70;;
23280;SDS011;11809;56.390;-3.266;2023-04-15T03:11:37;1.45;;;0.80;;
23280;SDS011;11809;56.390;-3.266;2023-04-15T03:14:06;1.00;;;0.85;;
23280;SDS011;11809;56.390;-3.266;2023-04-15T03:16:33;2.10;;;0.93;;
23280;SDS011;11809;56.390;-3.266;2023-04-15T03:19:00;0.93;;;0.90;;
23280;SDS011;11809;56.390;-3.266;2023-04-15T03:21:27;1.13;;;0.90;;
23280;SDS011;11809;56.390;-3.266;2023-04-15T03:23:54;1.15;;;0.80;;
23280;SDS011;11809;56.390;-3.266;2023-04-15T03:26:28;1.00;;;0.90;;
23280;SDS011;11809;56.390;-3.266;2023-04-15T03:28:56;0.75;;;0.70;;
23280;SDS011;11809;56.390;-3.266;2023-04-15T03:31:27;1.17;;;0.90;;
23280;SDS011;11809;56.390;-3.266;2023-04-15T03:33:54;1.35;;;0.90;;
23280;SDS011;11809;56.390;-3.266;2023-04-15T03:36:21;1.38;;;0.80;;
23280;SDS011;11809;56.390;-3.266;2023-04-15T03:38:48;1.08;;;0.77;;
23280;SDS011;11809;56.390;-3.266;2023-04-15T03:41:15;0.90;;;0.85;;
23280;SDS011;11809;56.390;-3.266;2023-04-15T03:43:43;1.15;;;0.93;;
23280;SDS011;11809;56.390;-3.266;2023-04-15T03:46:09;2.60;;;1.00;;
23280;SDS011;11809;56.390;-3.266;2023-04-15T03:48:37;1.23;;;0.80;;
23280;SDS011;11809;56.390;-3.266;2023-04-15T03:51:04;0.90;;;0.75;;
23280;SDS011;11809;56.390;-3.266;2023-04-15T03:53:31;0.77;;;0.77;;
23280;SDS011;11809;56.390;-3.266;2023-04-15T03:55:58;1.55;;;1.00;;
23280;SDS011;11809;56.390;-3.266;2023-04-15T03:58:25;2.13;;;0.70;;
23280;SDS011;11809;56.390;-3.266;2023-04-15T04:00:52;1.15;;;0.80;;
23280;SDS011;11809;56.390;-3.266;2023-04-15T04:03:20;1.10;;;0.88;;
23280;SDS011;11809;56.390;-3.266;2023-04-15T04:05:47;0.88;;;0.82;;
23280;SDS011;11809;56.390;-3.266;2023-04-15T04:08:15;3.13;;;0.90;;
23280;SDS011;11809;56.390;-3.266;2023-04-15T04:10:42;1.05;;;0.95;;
23280;SDS011;11809;56.390;-3.266;2023-04-15T04:13:09;1.63;;;0.73;;
23280;SDS011;11809;56.390;-3.266;2023-04-15T04:15:36;0.75;;;0.75;;
23280;SDS011;11809;56.390;-3.266;2023-04-15T04:18:03;0.80;;;0.80;;
23280;SDS011;11809;56.390;-3.266;2023-04-15T04:20:30;1.02;;;0.80;;
23280;SDS011;11809;56.390;-3.266;2023-04-15T04:22:57;0.82;;;0.80;;
23280;SDS011;11809;56.390;-3.266;2023-04-15T04:25:24;0.90;;;0.90;;
23280;SDS011;11809;56.390;-3.266;2023-04-15T04:27:51;0.80;;;0.80;;
23280;SDS011;11809;56.390;-3.266;2023-04-15T04:30:18;0.70;;;0.70;;
23280;SDS011;11809;56.390;-3.266;2023-04-15T04:32:45;2.13;;;0.80;;
23280;SDS011;11809;56.390;-3.266;2023-04-15T04:35:12;1.80;;;0.85;;
23280;SDS011;11809;56.390;-3.266;2023-04-15T04:37:39;0.90;;;0.70;;
23280;SDS011;11809;56.390;-3.266;2023-04-15T04:40:06;0.70;;;0.70;;
23280;SDS011;11809;56.390;-3.266;2023-04-15T04:42:34;0.82;;;0.70;;
23280;SDS011;11809;56.390;-3.266;2023-04-15T04:45:05;0.80;;;0.80;;
23280;SDS011;11809;56.390;-3.266;2023-04-15T04:47:32;0.90;;;0.80;;
23280;SDS011;11809;56.390;-3.266;2023-04-15T04:49:59;1.13;;;0.80;;
23280;SDS011;11809;56.390;-3.266;2023-04-15T04:52:26;1.02;;;0.80;;
23280;SDS011;11809;56.390;-3.266;2023-04-15T04:54:53;1.90;;;1.55;;
23280;SDS011;11809;56.390;-3.266;2023-04-15T04:57:21;0.80;;;0.80;;
23280;SDS011;11809;56.390;-3.266;2023-04-15T04:59:48;1.65;;;1.15;;
23280;SDS011;11809;56.390;-3.266;2023-04-15T05:02:15;1.27;;;0.77;;
23280;SDS011;11809;56.390;-3.266;2023-04-15T05:04:42;4.43;;;1.13;;
23280;SDS011;11809;56.390;-3.266;2023-04-15T05:07:09;8.13;;;1.40;;
23280;SDS011;11809;56.390;-3.266;2023-04-15T05:09:36;6.68;;;1.00;;
23280;SDS011;11809;56.390;-3.266;2023-04-15T05:12:03;4.93;;;2.33;;
23280;SDS011;11809;56.390;-3.266;2023-04-15T05:14:30;3.40;;;2.33;;
23280;SDS011;11809;56.390;-3.266;2023-04-15T05:16:58;6.47;;;2.80;;
23280;SDS011;11809;56.390;-3.266;2023-04-15T05:19:25;18.20;;;3.50;;
23280;SDS011;11809;56.390;-3.266;2023-04-15T05:21:52;8.65;;;2.70;;
23280;SDS011;11809;56.390;-3.266;2023-04-15T05:24:19;9.10;;;2.05;;
23280;SDS011;11809;56.390;-3.266;2023-04-15T05:26:49;4.25;;;1.88;;
23280;SDS011;11809;56.390;-3.266;2023-04-15T05:29:16;3.70;;;1.90;;
23280;SDS011;11809;56.390;-3.266;2023-04-15T05:31:43;5.05;;;1.50;;
23280;SDS011;11809;56.390;-3.266;2023-04-15T05:34:10;4.10;;;1.40;;
23280;SDS011;11809;56.390;-3.266;2023-04-15T05:36:38;2.20;;;1.50;;
23280;SDS011;11809;56.390;-3.266;2023-04-15T05:39:05;5.05;;;1.60;;
23280;SDS011;11809;56.390;-3.266;2023-04-15T05:41:32;9.63;;;1.48;;
23280;SDS011;11809;56.390;-3.266;2023-04-15T05:44:00;7.28;;;1.40;;
23280;SDS011;11809;56.390;-3.266;2023-04-15T05:46:27;6.90;;;1.83;;
23280;SDS011;11809;56.390;-3.266;2023-04-15T05:48:54;5.35;;;1.77;;
23280;SDS011;11809;56.390;-3.266;2023-04-15T05:51:22;3.17;;;1.45;;
23280;SDS011;11809;56.390;-3.266;2023-04-15T05:53:49;10.48;;;1.60;;
23280;SDS011;11809;56.390;-3.266;2023-04-15T05:56:16;10.13;;;1.60;;
23280;SDS011;11809;56.390;-3.266;2023-04-15T05:58:43;29.50;;;3.15;;
23280;SDS011;11809;56.390;-3.266;2023-04-15T06:01:10;12.25;;;2.72;;
23280;SDS011;11809;56.390;-3.266;2023-04-15T06:03:37;10.38;;;2.40;;
23280;SDS011;11809;56.390;-3.266;2023-04-15T06:06:05;6.78;;;2.28;;
23280;SDS011;11809;56.390;-3.266;2023-04-15T06:08:33;10.85;;;2.17;;
23280;SDS011;11809;56.390;-3.266;2023-04-15T06:11:00;9.02;;;2.40;;
23280;SDS011;11809;56.390;-3.266;2023-04-15T06:13:27;6.80;;;2.25;;
23280;SDS011;11809;56.390;-3.266;2023-04-15T06:15:54;7.90;;;2.60;;
23280;SDS011;11809;56.390;-3.266;2023-04-15T06:18:21;6.63;;;2.13;;
23280;SDS011;11809;56.390;-3.266;2023-04-15T06:20:48;8.10;;;2.97;;
23280;SDS011;11809;56.390;-3.266;2023-04-15T06:23:16;5.32;;;2.28;;
23280;SDS011;11809;56.390;-3.266;2023-04-15T06:25:43;3.80;;;1.70;;
23280;SDS011;11809;56.390;-3.266;2023-04-15T06:28:10;3.97;;;1.95;;
23280;SDS011;11809;56.390;-3.266;2023-04-15T06:30:37;3.42;;;1.50;;
23280;SDS011;11809;56.390;-3.266;2023-04-15T06:33:04;3.10;;;1.70;;
23280;SDS011;11809;56.390;-3.266;2023-04-15T06:35:32;4.75;;;1.77;;
23280;SDS011;11809;56.390;-3.266;2023-04-15T06:37:59;7.18;;;2.22;;
23280;SDS011;11809;56.390;-3.266;2023-04-15T06:40:26;5.40;;;2.38;;
23280;SDS011;11809;56.390;-3.266;2023-04-15T06:42:53;13.30;;;2.15;;
23280;SDS011;11809;56.390;-3.266;2023-04-15T06:45:21;10.88;;;2.20;;
23280;SDS011;11809;56.390;-3.266;2023-04-15T06:47:48;4.75;;;1.48;;
23280;SDS011;11809;56.390;-3.266;2023-04-15T06:50:15;9.30;;;1.83;;
23280;SDS011;11809;56.390;-3.266;2023-04-15T06:52:43;7.05;;;2.10;;
23280;SDS011;11809;56.390;-3.266;2023-04-15T06:55:10;8.82;;;1.70;;
23280;SDS011;11809;56.390;-3.266;2023-04-15T06:57:37;13.80;;;1.85;;
23280;SDS011;11809;56.390;-3.266;2023-04-15T07:00:04;2.90;;;1.42;;
23280;SDS011;11809;56.390;-3.266;2023-04-15T07:02:33;11.00;;;1.50;;
23280;SDS011;11809;56.390;-3.266;2023-04-15T07:05:00;13.00;;;1.90;;
23280;SDS011;11809;56.390;-3.266;2023-04-15T07:07:27;9.07;;;1.83;;
23280;SDS011;11809;56.390;-3.266;2023-04-15T07:09:54;6.38;;;1.40;;
23280;SDS011;11809;56.390;-3.266;2023-04-15T07:12:21;20.33;;;2.03;;
23280;SDS011;11809;56.390;-3.266;2023-04-15T07:14:48;9.20;;;1.77;;
23280;SDS011;11809;56.390;-3.266;2023-04-15T07:17:15;11.75;;;2.20;;
23280;SDS011;11809;56.390;-3.266;2023-04-15T07:19:42;25.77;;;2.08;;
23280;SDS011;11809;56.390;-3.266;2023-04-15T07:22:10;10.05;;;1.98;;
23280;SDS011;11809;56.390;-3.266;2023-04-15T07:24:38;10.45;;;2.15;;
23280;SDS011;11809;56.390;-3.266;2023-04-15T07:27:05;19.75;;;2.60;;
23280;SDS011;11809;56.390;-3.266;2023-04-15T07:29:33;14.63;;;2.65;;
23280;SDS011;11809;56.390;-3.266;2023-04-15T07:32:00;8.48;;;2.30;;
23280;SDS011;11809;56.390;-3.266;2023-04-15T07:34:27;16.42;;;2.63;;
23280;SDS011;11809;56.390;-3.266;2023-04-15T07:36:56;11.90;;;1.85;;
23280;SDS011;11809;56.390;-3.266;2023-04-15T07:39:23;7.18;;;1.98;;
23280;SDS011;11809;56.390;-3.266;2023-04-15T07:41:51;11.07;;;2.22;;
23280;SDS011;11809;56.390;-3.266;2023-04-15T07:44:18;13.38;;;2.13;;
23280;SDS011;11809;56.390;-3.266;2023-04-15T07:46:46;4.70;;;1.50;;
23280;SDS011;11809;56.390;-3.266;2023-04-15T07:49:13;8.15;;;1.80;;
23280;SDS011;11809;56.390;-3.266;2023-04-15T07:51:41;4.60;;;1.42;;
23280;SDS011;11809;56.390;-3.266;2023-04-15T07:54:09;5.18;;;1.55;;
23280;SDS011;11809;56.390;-3.266;2023-04-15T07:56:36;6.65;;;1.58;;
23280;SDS011;11809;56.390;-3.266;2023-04-15T07:59:03;8.57;;;1.80;;
23280;SDS011;11809;56.390;-3.266;2023-04-15T08:01:32;4.78;;;1.35;;
23280;SDS011;11809;56.390;-3.266;2023-04-15T08:03:59;11.23;;;1.77;;
23280;SDS011;11809;56.390;-3.266;2023-04-15T08:06:26;24.35;;;2.33;;
23280;SDS011;11809;56.390;-3.266;2023-04-15T08:08:54;5.68;;;1.45;;
23280;SDS011;11809;56.390;-3.266;2023-04-15T08:11:21;2.97;;;1.38;;
23280;SDS011;11809;56.390;-3.266;2023-04-15T08:13:50;12.23;;;2.33;;
23280;SDS011;11809;56.390;-3.266;2023-04-15T08:18:48;11.95;;;2.90;;
23280;SDS011;11809;56.390;-3.266;2023-04-15T08:21:17;4.45;;;2.85;;
23280;SDS011;11809;56.390;-3.266;2023-04-15T08:23:46;12.20;;;3.05;;
23280;SDS011;11809;56.390;-3.266;2023-04-15T08:26:15;13.52;;;2.50;;
23280;SDS011;11809;56.390;-3.266;2023-04-15T08:28:43;8.60;;;1.77;;
23280;SDS011;11809;56.390;-3.266;2023-04-15T08:31:11;3.92;;;2.13;;
23280;SDS011;11809;56.390;-3.266;2023-04-15T08:33:40;5.43;;;1.70;;
23280;SDS011;11809;56.390;-3.266;2023-04-15T08:36:08;4.22;;;1.70;;
23280;SDS011;11809;56.390;-3.266;2023-04-15T08:38:35;7.93;;;1.50;;
23280;SDS011;11809;56.390;-3.266;2023-04-15T08:41:03;4.72;;;1.70;;
23280;SDS011;11809;56.390;-3.266;2023-04-15T08:43:39;4.38;;;1.42;;
23280;SDS011;11809;56.390;-3.266;2023-04-15T08:46:15;3.83;;;1.60;;
23280;SDS011;11809;56.390;-3.266;2023-04-15T08:48:43;5.10;;;1.58;;
23280;SDS011;11809;56.390;-3.266;2023-04-15T08:51:12;2.05;;;1.42;;
23280;SDS011;11809;56.390;-3.266;2023-04-15T08:53:42;3.80;;;1.27;;
23280;SDS011;11809;56.390;-3.266;2023-04-15T08:56:13;3.78;;;1.65;;
23280;SDS011;11809;56.390;-3.266;2023-04-15T08:58:42;5.07;;;1.48;;
23280;SDS011;11809;56.390;-3.266;2023-04-15T09:01:10;2.30;;;1.48;;
23280;SDS011;11809;56.390;-3.266;2023-04-15T09:03:38;2.17;;;1.30;;
23280;SDS011;11809;56.390;-3.266;2023-04-15T09:06:06;3.10;;;1.20;;
23280;SDS011;11809;56.390;-3.266;2023-04-15T09:08:34;4.93;;;1.30;;
23280;SDS011;11809;56.390;-3.266;2023-04-15T09:11:01;3.30;;;1.17;;
23280;SDS011;11809;56.390;-3.266;2023-04-15T09:13:29;1.55;;;1.10;;
23280;SDS011;11809;56.390;-3.266;2023-04-15T09:15:57;1.42;;;1.20;;
23280;SDS011;11809;56.390;-3.266;2023-04-15T09:18:31;2.03;;;1.13;;
23280;SDS011;11809;56.390;-3.266;2023-04-15T09:23:37;22.25;;;2.28;;
23280;SDS011;11809;56.390;-3.266;2023-04-15T09:26:06;11.20;;;1.92;;
23280;SDS011;11809;56.390;-3.266;2023-04-15T09:28:40;5.43;;;1.55;;
23280;SDS011;11809;56.390;-3.266;2023-04-15T09:31:08;5.15;;;1.50;;
23280;SDS011;11809;56.390;-3.266;2023-04-15T09:33:40;8.20;;;1.77;;
23280;SDS011;11809;56.390;-3.266;2023-04-15T09:36:21;10.00;;;2.00;;
23280;SDS011;11809;56.390;-3.266;2023-04-15T09:38:54;12.27;;;1.88;;
23280;SDS011;11809;56.390;-3.266;2023-04-15T09:41:23;10.02;;;1.77;;
23280;SDS011;11809;56.390;-3.266;2023-04-15T09:43:52;17.75;;;2.17;;
23280;SDS011;11809;56.390;-3.266;2023-04-15T09:46:19;7.53;;;1.80;;
23280;SDS011;11809;56.390;-3.266;2023-04-15T09:48:46;6.18;;;1.67;;
23280;SDS011;11809;56.390;-3.266;2023-04-15T09:51:33;2.67;;;1.20;;
23280;SDS011;11809;56.390;-3.266;2023-04-15T09:54:01;7.60;;;1.30;;
23280;SDS011;11809;56.390;-3.266;2023-04-15T09:56:35;5.78;;;1.63;;
23280;SDS011;11809;56.390;-3.266;2023-04-15T09:59:04;3.90;;;0.95;;
23280;SDS011;11809;56.390;-3.266;2023-04-15T10:01:31;10.00;;;1.58;;
23280;SDS011;11809;56.390;-3.266;2023-04-15T10:03:58;10.60;;;1.52;;
23280;SDS011;11809;56.390;-3.266;2023-04-15T10:06:32;9.82;;;1.88;;
23280;SDS011;11809;56.390;-3.266;2023-04-15T10:09:00;21.40;;;1.88;;
23280;SDS011;11809;56.390;-3.266;2023-04-15T10:11:28;15.30;;;1.23;;
23280;SDS011;11809;56.390;-3.266;2023-04-15T10:13:57;9.63;;;1.60;;
23280;SDS011;11809;56.390;-3.266;2023-04-15T10:16:25;13.70;;;1.63;;
23280;SDS011;11809;56.390;-3.266;2023-04-15T10:18:56;13.70;;;1.40;;
23280;SDS011;11809;56.390;-3.266;2023-04-15T10:21:27;7.30;;;1.33;;
23280;SDS011;11809;56.390;-3.266;2023-04-15T10:23:57;11.02;;;1.20;;
23280;SDS011;11809;56.390;-3.266;2023-04-15T10:26:24;23.67;;;2.45;;
23280;SDS011;11809;56.390;-3.266;2023-04-15T10:28:52;17.20;;;1.85;;
23280;SDS011;11809;56.390;-3.266;2023-04-15T10:31:20;8.98;;;1.20;;
23280;SDS011;11809;56.390;-3.266;2023-04-15T10:33:47;12.13;;;1.17;;
23280;SDS011;11809;56.390;-3.266;2023-04-15T10:36:16;19.25;;;2.00;;
23280;SDS011;11809;56.390;-3.266;2023-04-15T10:38:45;20.33;;;1.60;;
23280;SDS011;11809;56.390;-3.266;2023-04-15T10:43:48;15.27;;;1.90;;
23280;SDS011;11809;56.390;-3.266;2023-04-15T10:51:51;7.22;;;1.35;;
23280;SDS011;11809;56.390;-3.266;2023-04-15T10:59:31;3.72;;;1.10;;
23280;SDS011;11809;56.390;-3.266;2023-04-15T11:02:02;5.95;;;1.30;;
23280;SDS011;11809;56.390;-3.266;2023-04-15T11:12:40;1.95;;;0.90;;
23280;SDS011;11809;56.390;-3.266;2023-04-15T11:20:49;12.88;;;2.45;;
23280;SDS011;11809;56.390;-3.266;2023-04-15T11:23:18;8.82;;;2.30;;
23280;SDS011;11809;56.390;-3.266;2023-04-15T11:25:56;10.63;;;2.22;;
23280;SDS011;11809;56.390;-3.266;2023-04-15T11:28:24;27.27;;;3.03;;
23280;SDS011;11809;56.390;-3.266;2023-04-15T11:30:54;39.55;;;3.65;;
23280;SDS011;11809;56.390;-3.266;2023-04-15T11:33:21;38.47;;;2.95;;
23280;SDS011;11809;56.390;-3.266;2023-04-15T11:35:50;17.52;;;2.45;;
23280;SDS011;11809;56.390;-3.266;2023-04-15T11:38:19;32.92;;;3.10;;
23280;SDS011;11809;56.390;-3.266;2023-04-15T11:40:47;31.35;;;2.90;;
23280;SDS011;11809;56.390;-3.266;2023-04-15T11:43:18;9.38;;;2.35;;
23280;SDS011;11809;56.390;-3.266;2023-04-15T11:45:51;11.38;;;1.80;;
23280;SDS011;11809;56.390;-3.266;2023-04-15T11:48:32;7.80;;;1.58;;
23280;SDS011;11809;56.390;-3.266;2023-04-15T11:51:05;13.88;;;1.60;;
23280;SDS011;11809;56.390;-3.266;2023-04-15T11:53:46;13.18;;;1.80;;
23280;SDS011;11809;56.390;-3.266;2023-04-15T11:56:16;11.70;;;1.42;;
23280;SDS011;11809;56.390;-3.266;2023-04-15T11:58:47;22.52;;;1.60;;
23280;SDS011;11809;56.390;-3.266;2023-04-15T12:01:19;6.82;;;1.60;;
23280;SDS011;11809;56.390;-3.266;2023-04-15T12:03:46;5.05;;;1.50;;
23280;SDS011;11809;56.390;-3.266;2023-04-15T12:06:22;5.95;;;1.23;;
23280;SDS011;11809;56.390;-3.266;2023-04-15T12:14:04;11.30;;;1.50;;
23280;SDS011;11809;56.390;-3.266;2023-04-15T12:16:34;20.38;;;1.67;;
23280;SDS011;11809;56.390;-3.266;2023-04-15T12:19:16;8.57;;;1.27;;
23280;SDS011;11809;56.390;-3.266;2023-04-15T12:22:11;16.13;;;1.60;;
23280;SDS011;11809;56.390;-3.266;2023-04-15T12:24:40;8.98;;;1.80;;
23280;SDS011;11809;56.390;-3.266;2023-04-15T12:27:10;7.30;;;1.30;;
23280;SDS011;11809;56.390;-3.266;2023-04-15T12:29:39;11.52;;;1.60;;
23280;SDS011;11809;56.390;-3.266;2023-04-15T12:32:12;10.45;;;1.08;;
23280;SDS011;11809;56.390;-3.266;2023-04-15T12:37:15;16.33;;;1.83;;
23280;SDS011;11809;56.390;-3.266;2023-04-15T12:39:46;23.83;;;1.48;;
23280;SDS011;11809;56.390;-3.266;2023-04-15T12:42:15;8.85;;;1.30;;
23280;SDS011;11809;56.390;-3.266;2023-04-15T12:44:44;12.98;;;1.85;;
23280;SDS011;11809;56.390;-3.266;2023-04-15T12:47:11;11.38;;;1.65;;
23280;SDS011;11809;56.390;-3.266;2023-04-15T12:49:39;12.85;;;1.35;;
23280;SDS011;11809;56.390;-3.266;2023-04-15T12:52:07;10.35;;;1.42;;
23280;SDS011;11809;56.390;-3.266;2023-04-15T12:54:34;9.15;;;1.40;;
23280;SDS011;11809;56.390;-3.266;2023-04-15T12:57:01;12.38;;;1.30;;
23280;SDS011;11809;56.390;-3.266;2023-04-15T12:59:32;11.45;;;1.40;;
23280;SDS011;11809;56.390;-3.266;2023-04-15T13:01:59;10.80;;;1.45;;
23280;SDS011;11809;56.390;-3.266;2023-04-15T13:04:28;11.00;;;1.45;;
23280;SDS011;11809;56.390;-3.266;2023-04-15T13:06:56;7.32;;;1.60;;
23280;SDS011;11809;56.390;-3.266;2023-04-15T13:09:24;13.20;;;1.15;;
23280;SDS011;11809;56.390;-3.266;2023-04-15T13:11:51;6.35;;;1.00;;
23280;SDS011;11809;56.390;-3.266;2023-04-15T13:14:20;10.90;;;1.17;;
23280;SDS011;11809;56.390;-3.266;2023-04-15T13:16:47;3.33;;;0.82;;
23280;SDS011;11809;56.390;-3.266;2023-04-15T13:19:14;9.75;;;1.17;;
23280;SDS011;11809;56.390;-3.266;2023-04-15T13:21:41;6.43;;;1.35;;
23280;SDS011;11809;56.390;-3.266;2023-04-15T13:24:08;8.32;;;1.27;;
23280;SDS011;11809;56.390;-3.266;2023-04-15T13:26:36;7.47;;;1.13;;
23280;SDS011;11809;56.390;-3.266;2023-04-15T13:29:03;4.60;;;1.10;;
23280;SDS011;11809;56.390;-3.266;2023-04-15T13:31:30;7.40;;;1.13;;
23280;SDS011;11809;56.390;-3.266;2023-04-15T13:33:58;8.15;;;0.88;;
23280;SDS011;11809;56.390;-3.266;2023-04-15T13:36:25;6.53;;;0.80;;
23280;SDS011;11809;56.390;-3.266;2023-04-15T13:38:53;5.85;;;0.88;;
23280;SDS011;11809;56.390;-3.266;2023-04-15T13:41:20;3.10;;;0.80;;
23280;SDS011;11809;56.390;-3.266;2023-04-15T13:43:47;10.20;;;1.00;;
23280;SDS011;11809;56.390;-3.266;2023-04-15T13:46:14;13.90;;;1.02;;
23280;SDS011;11809;56.390;-3.266;2023-04-15T13:48:42;37.53;;;2.88;;
23280;SDS011;11809;56.390;-3.266;2023-04-15T13:51:10;48.53;;;3.33;;
23280;SDS011;11809;56.390;-3.266;2023-04-15T13:53:37;34.60;;;2.13;;
23280;SDS011;11809;56.390;-3.266;2023-04-15T13:56:08;20.85;;;1.65;;
23280;SDS011;11809;56.390;-3.266;2023-04-15T13:58:39;18.83;;;2.22;;
23280;SDS011;11809;56.390;-3.266;2023-04-15T14:01:06;20.70;;;2.85;;
23280;SDS011;11809;56.390;-3.266;2023-04-15T14:03:34;14.25;;;1.77;;
23280;SDS011;11809;56.390;-3.266;2023-04-15T14:06:03;19.55;;;3.03;;
23280;SDS011;11809;56.390;-3.266;2023-04-15T14:08:31;12.85;;;2.28;;
23280;SDS011;11809;56.390;-3.266;2023-04-15T14:10:58;9.70;;;2.05;;
23280;SDS011;11809;56.390;-3.266;2023-04-15T14:13:26;16.73;;;2.03;;
23280;SDS011;11809;56.390;-3.266;2023-04-15T14:15:53;10.27;;;1.88;;
23280;SDS011;11809;56.390;-3.266;2023-04-15T14:18:20;14.88;;;2.35;;
23280;SDS011;11809;56.390;-3.266;2023-04-15T14:20:47;5.72;;;1.60;;
23280;SDS011;11809;56.390;-3.266;2023-04-15T14:23:15;8.77;;;1.92;;
23280;SDS011;11809;56.390;-3.266;2023-04-15T14:25:42;6.25;;;1.50;;
23280;SDS011;11809;56.390;-3.266;2023-04-15T14:28:13;16.60;;;2.35;;
23280;SDS011;11809;56.390;-3.266;2023-04-15T14:30:40;33.50;;;2.53;;
23280;SDS011;11809;56.390;-3.266;2023-04-15T14:33:07;12.32;;;1.60;;
23280;SDS011;11809;56.390;-3.266;2023-04-15T14:35:34;9.95;;;1.80;;
23280;SDS011;11809;56.390;-3.266;2023-04-15T14:38:02;10.27;;;1.58;;
23280;SDS011;11809;56.390;-3.266;2023-04-15T14:40:29;14.77;;;2.08;;
23280;SDS011;11809;56.390;-3.266;2023-04-15T14:42:56;15.07;;;2.63;;
23280;SDS011;11809;56.390;-3.266;2023-04-15T14:45:23;8.18;;;2.15;;
23280;SDS011;11809;56.390;-3.266;2023-04-15T14:47:50;7.38;;;1.90;;
23280;SDS011;11809;56.390;-3.266;2023-04-15T14:50:19;10.13;;;2.00;;
23280;SDS011;11809;56.390;-3.266;2023-04-15T14:52:48;13.93;;;2.13;;
23280;SDS011;11809;56.390;-3.266;2023-04-15T14:55:15;8.32;;;2.08;;
23280;SDS011;11809;56.390;-3.266;2023-04-15T14:57:43;12.13;;;2.03;;
23280;SDS011;11809;56.390;-3.266;2023-04-15T15:00:11;12.23;;;2.20;;
23280;SDS011;11809;56.390;-3.266;2023-04-15T15:02:41;7.03;;;2.28;;
23280;SDS011;11809;56.390;-3.266;2023-04-15T15:05:10;9.15;;;2.10;;
23280;SDS011;11809;56.390;-3.266;2023-04-15T15:07:38;18.48;;;3.20;;
23280;SDS011;11809;56.390;-3.266;2023-04-15T15:10:07;15.63;;;3.58;;
23280;SDS011;11809;56.390;-3.266;2023-04-15T15:12:35;46.97;;;4.35;;
23280;SDS011;11809;56.390;-3.266;2023-04-15T15:15:03;8.95;;;2.30;;
23280;SDS011;11809;56.390;-3.266;2023-04-15T15:30:14;11.40;;;3.00;;
23280;SDS011;11809;56.390;-3.266;2023-04-15T15:33:58;43.17;;;3.80;;